sensor_id;sensor_type;location;lat;lon;timestamp;P1;durP1;ratioP1;P2;durP2;ratioP2
72517;SDS011;60540;51.178;6.738;2023-07-20T00:00:29;3.65;;;2.08;;
72517;SDS011;60540;51.178;6.738;2023-07-20T00:03:15;5.10;;;2.00;;
72517;SDS011;60540;51.178;6.738;2023-07-20T00:05:44;5.28;;;2.30;;
72517;SDS011;60540;51.178;6.738;2023-07-20T00:08:13;5.15;;;2.40;;
72517;SDS011;60540;51.178;6.738;2023-07-20T00:10:39;4.45;;;2.42;;
72517;SDS011;60540;51.178;6.738;2023-07-20T00:13:06;5.30;;;2.33;;
72517;SDS011;60540;51.178;6.738;2023-07-20T00:15:31;5.63;;;2.20;;
72517;SDS011;60540;51.178;6.738;2023-07-20T00:17:57;5.53;;;2.25;;
72517;SDS011;60540;51.178;6.738;2023-07-20T00:20:23;4.70;;;1.98;;
72517;SDS011;60540;51.178;6.738;2023-07-20T00:22:50;6.10;;;2.22;;
72517;SDS011;60540;51.178;6.738;2023-07-20T00:25:16;5.63;;;2.35;;
72517;SDS011;60540;51.178;6.738;2023-07-20T00:27:42;4.70;;;2.83;;
72517;SDS011;60540;51.178;6.738;2023-07-20T00:30:08;4.88;;;2.20;;
72517;SDS011;60540;51.178;6.738;2023-07-20T00:32:34;5.53;;;2.50;;
72517;SDS011;60540;51.178;6.738;2023-07-20T00:35:00;3.97;;;2.28;;
72517;SDS011;60540;51.178;6.738;2023-07-20T00:37:26;4.85;;;2.15;;
72517;SDS011;60540;51.178;6.738;2023-07-20T00:39:52;4.50;;;2.40;;
72517;SDS011;60540;51.178;6.738;2023-07-20T00:42:18;5.68;;;2.67;;
72517;SDS011;60540;51.178;6.738;2023-07-20T00:44:44;4.10;;;2.15;;
72517;SDS011;60540;51.178;6.738;2023-07-20T00:47:10;5.07;;;2.55;;
72517;SDS011;60540;51.178;6.738;2023-07-20T00:49:35;4.07;;;2.13;;
72517;SDS011;60540;51.178;6.738;2023-07-20T00:52:02;4.57;;;2.10;;
72517;SDS011;60540;51.178;6.738;2023-07-20T00:56:54;4.03;;;2.50;;
72517;SDS011;60540;51.178;6.738;2023-07-20T00:59:20;5.00;;;2.50;;
72517;SDS011;60540;51.178;6.738;2023-07-20T01:01:46;4.55;;;2.50;;
72517;SDS011;60540;51.178;6.738;2023-07-20T01:04:12;5.22;;;2.40;;
72517;SDS011;60540;51.178;6.738;2023-07-20T01:09:20;4.13;;;2.05;;
72517;SDS011;60540;51.178;6.738;2023-07-20T01:12:02;4.80;;;2.22;;
72517;SDS011;60540;51.178;6.738;2023-07-20T01:14:30;6.65;;;2.30;;
72517;SDS011;60540;51.178;6.738;2023-07-20T01:16:57;5.55;;;2.58;;
72517;SDS011;60540;51.178;6.738;2023-07-20T01:19:23;6.82;;;2.63;;
72517;SDS011;60540;51.178;6.738;2023-07-20T01:21:51;5.00;;;2.30;;
72517;SDS011;60540;51.178;6.738;2023-07-20T01:24:32;4.82;;;2.13;;
72517;SDS011;60540;51.178;6.738;2023-07-20T01:33:02;6.72;;;3.08;;
72517;SDS011;60540;51.178;6.738;2023-07-20T01:35:29;6.60;;;2.30;;
72517;SDS011;60540;51.178;6.738;2023-07-20T01:37:55;5.18;;;2.20;;
72517;SDS011;60540;51.178;6.738;2023-07-20T01:40:23;5.60;;;2.25;;
72517;SDS011;60540;51.178;6.738;2023-07-20T01:42:51;5.93;;;2.42;;
72517;SDS011;60540;51.178;6.738;2023-07-20T01:45:17;5.80;;;2.30;;
72517;SDS011;60540;51.178;6.738;2023-07-20T01:47:43;5.32;;;2.53;;
72517;SDS011;60540;51.178;6.738;2023-07-20T01:50:08;6.30;;;3.03;;
72517;SDS011;60540;51.178;6.738;2023-07-20T01:52:34;7.05;;;2.97;;
72517;SDS011;60540;51.178;6.738;2023-07-20T01:55:00;4.07;;;2.17;;
72517;SDS011;60540;51.178;6.738;2023-07-20T01:57:26;4.15;;;2.20;;
72517;SDS011;60540;51.178;6.738;2023-07-20T01:59:52;4.68;;;2.40;;
72517;SDS011;60540;51.178;6.738;2023-07-20T02:02:18;5.28;;;2.08;;
72517;SDS011;60540;51.178;6.738;2023-07-20T02:04:43;5.15;;;2.15;;
72517;SDS011;60540;51.178;6.738;2023-07-20T02:07:09;5.95;;;2.50;;
72517;SDS011;60540;51.178;6.738;2023-07-20T02:09:35;4.95;;;2.13;;
72517;SDS011;60540;51.178;6.738;2023-07-20T02:12:01;5.18;;;2.30;;
72517;SDS011;60540;51.178;6.738;2023-07-20T02:14:26;4.63;;;2.53;;
72517;SDS011;60540;51.178;6.738;2023-07-20T02:16:53;4.28;;;2.15;;
72517;SDS011;60540;51.178;6.738;2023-07-20T02:19:24;6.07;;;2.50;;
72517;SDS011;60540;51.178;6.738;2023-07-20T02:21:50;7.82;;;2.63;;
72517;SDS011;60540;51.178;6.738;2023-07-20T02:24:16;5.97;;;2.40;;
72517;SDS011;60540;51.178;6.738;2023-07-20T02:26:42;4.88;;;2.22;;
72517;SDS011;60540;51.178;6.738;2023-07-20T02:29:09;4.82;;;2.35;;
72517;SDS011;60540;51.178;6.738;2023-07-20T02:31:37;6.00;;;2.90;;
72517;SDS011;60540;51.178;6.738;2023-07-20T02:34:05;5.82;;;2.92;;
72517;SDS011;60540;51.178;6.738;2023-07-20T02:36:31;6.07;;;2.72;;
72517;SDS011;60540;51.178;6.738;2023-07-20T02:39:00;6.13;;;2.70;;
72517;SDS011;60540;51.178;6.738;2023-07-20T02:41:27;6.50;;;3.08;;
72517;SDS011;60540;51.178;6.738;2023-07-20T02:43:53;5.45;;;2.58;;
72517;SDS011;60540;51.178;6.738;2023-07-20T02:46:19;6.93;;;2.88;;
72517;SDS011;60540;51.178;6.738;2023-07-20T02:48:44;6.60;;;2.72;;
72517;SDS011;60540;51.178;6.738;2023-07-20T02:51:10;5.05;;;2.50;;
72517;SDS011;60540;51.178;6.738;2023-07-20T02:53:37;4.93;;;2.53;;
72517;SDS011;60540;51.178;6.738;2023-07-20T02:56:03;6.88;;;2.95;;
72517;SDS011;60540;51.178;6.738;2023-07-20T02:58:29;4.72;;;2.53;;
72517;SDS011;60540;51.178;6.738;2023-07-20T03:00:55;4.57;;;2.60;;
72517;SDS011;60540;51.178;6.738;2023-07-20T03:03:20;4.60;;;2.40;;
72517;SDS011;60540;51.178;6.738;2023-07-20T03:05:46;6.40;;;2.58;;
72517;SDS011;60540;51.178;6.738;2023-07-20T03:08:12;8.98;;;3.00;;
72517;SDS011;60540;51.178;6.738;2023-07-20T03:10:39;6.38;;;2.90;;
72517;SDS011;60540;51.178;6.738;2023-07-20T03:13:06;5.60;;;2.80;;
72517;SDS011;60540;51.178;6.738;2023-07-20T03:15:32;6.30;;;2.55;;
72517;SDS011;60540;51.178;6.738;2023-07-20T03:17:58;6.93;;;2.78;;
72517;SDS011;60540;51.178;6.738;2023-07-20T03:20:24;5.68;;;2.63;;
72517;SDS011;60540;51.178;6.738;2023-07-20T03:22:49;8.35;;;3.40;;
72517;SDS011;60540;51.178;6.738;2023-07-20T03:25:15;7.50;;;2.83;;
72517;SDS011;60540;51.178;6.738;2023-07-20T03:27:42;6.82;;;2.80;;
72517;SDS011;60540;51.178;6.738;2023-07-20T03:30:08;7.40;;;3.40;;
72517;SDS011;60540;51.178;6.738;2023-07-20T03:32:35;6.10;;;2.88;;
72517;SDS011;60540;51.178;6.738;2023-07-20T03:35:01;7.00;;;2.85;;
72517;SDS011;60540;51.178;6.738;2023-07-20T03:37:27;6.38;;;2.78;;
72517;SDS011;60540;51.178;6.738;2023-07-20T03:39:53;6.85;;;3.22;;
72517;SDS011;60540;51.178;6.738;2023-07-20T03:42:18;7.50;;;3.03;;
72517;SDS011;60540;51.178;6.738;2023-07-20T03:44:44;7.18;;;3.55;;
72517;SDS011;60540;51.178;6.738;2023-07-20T03:47:10;5.47;;;3.10;;
72517;SDS011;60540;51.178;6.738;2023-07-20T03:49:36;7.45;;;3.20;;
72517;SDS011;60540;51.178;6.738;2023-07-20T03:52:01;5.97;;;3.08;;
72517;SDS011;60540;51.178;6.738;2023-07-20T03:54:29;6.63;;;3.33;;
72517;SDS011;60540;51.178;6.738;2023-07-20T03:56:54;6.28;;;3.10;;
72517;SDS011;60540;51.178;6.738;2023-07-20T03:59:20;6.88;;;2.92;;
72517;SDS011;60540;51.178;6.738;2023-07-20T04:01:46;7.82;;;3.30;;
72517;SDS011;60540;51.178;6.738;2023-07-20T04:04:13;5.88;;;2.80;;
72517;SDS011;60540;51.178;6.738;2023-07-20T04:06:40;7.70;;;2.58;;
72517;SDS011;60540;51.178;6.738;2023-07-20T04:09:10;6.47;;;3.30;;
72517;SDS011;60540;51.178;6.738;2023-07-20T04:11:36;6.75;;;3.42;;
72517;SDS011;60540;51.178;6.738;2023-07-20T04:14:02;5.70;;;3.40;;
72517;SDS011;60540;51.178;6.738;2023-07-20T04:16:28;5.93;;;2.50;;
72517;SDS011;60540;51.178;6.738;2023-07-20T04:18:57;8.43;;;3.35;;
72517;SDS011;60540;51.178;6.738;2023-07-20T04:21:23;6.93;;;2.85;;
72517;SDS011;60540;51.178;6.738;2023-07-20T04:23:51;7.35;;;2.90;;
72517;SDS011;60540;51.178;6.738;2023-07-20T04:26:16;7.93;;;3.22;;
72517;SDS011;60540;51.178;6.738;2023-07-20T04:28:42;7.68;;;2.88;;
72517;SDS011;60540;51.178;6.738;2023-07-20T04:31:14;7.20;;;3.03;;
72517;SDS011;60540;51.178;6.738;2023-07-20T04:33:40;6.97;;;3.40;;
72517;SDS011;60540;51.178;6.738;2023-07-20T04:36:06;7.90;;;3.17;;
72517;SDS011;60540;51.178;6.738;2023-07-20T04:38:32;8.52;;;3.88;;
72517;SDS011;60540;51.178;6.738;2023-07-20T04:40:58;7.00;;;3.25;;
72517;SDS011;60540;51.178;6.738;2023-07-20T04:43:24;6.35;;;3.08;;
72517;SDS011;60540;51.178;6.738;2023-07-20T04:45:50;6.43;;;2.92;;
72517;SDS011;60540;51.178;6.738;2023-07-20T04:48:16;8.30;;;3.33;;
72517;SDS011;60540;51.178;6.738;2023-07-20T04:50:43;6.32;;;3.38;;
72517;SDS011;60540;51.178;6.738;2023-07-20T04:53:12;8.57;;;3.25;;
72517;SDS011;60540;51.178;6.738;2023-07-20T04:55:39;6.38;;;3.17;;
72517;SDS011;60540;51.178;6.738;2023-07-20T04:58:05;6.55;;;3.28;;
72517;SDS011;60540;51.178;6.738;2023-07-20T05:00:34;7.00;;;3.17;;
72517;SDS011;60540;51.178;6.738;2023-07-20T05:03:00;9.02;;;3.97;;
72517;SDS011;60540;51.178;6.738;2023-07-20T05:05:26;7.50;;;3.30;;
72517;SDS011;60540;51.178;6.738;2023-07-20T05:07:52;9.55;;;4.88;;
72517;SDS011;60540;51.178;6.738;2023-07-20T05:10:18;6.82;;;3.53;;
72517;SDS011;60540;51.178;6.738;2023-07-20T05:12:43;5.40;;;2.88;;
72517;SDS011;60540;51.178;6.738;2023-07-20T05:15:09;8.32;;;3.40;;
72517;SDS011;60540;51.178;6.738;2023-07-20T05:17:35;6.85;;;3.10;;
72517;SDS011;60540;51.178;6.738;2023-07-20T05:20:01;7.88;;;4.00;;
72517;SDS011;60540;51.178;6.738;2023-07-20T05:22:29;6.97;;;3.63;;
72517;SDS011;60540;51.178;6.738;2023-07-20T05:24:55;8.63;;;3.85;;
72517;SDS011;60540;51.178;6.738;2023-07-20T05:27:21;10.07;;;3.95;;
72517;SDS011;60540;51.178;6.738;2023-07-20T05:29:47;9.75;;;4.00;;
72517;SDS011;60540;51.178;6.738;2023-07-20T05:32:13;8.77;;;3.70;;
72517;SDS011;60540;51.178;6.738;2023-07-20T05:34:39;10.23;;;5.28;;
72517;SDS011;60540;51.178;6.738;2023-07-20T05:37:05;9.75;;;5.03;;
72517;SDS011;60540;51.178;6.738;2023-07-20T05:39:34;8.73;;;4.72;;
72517;SDS011;60540;51.178;6.738;2023-07-20T05:42:00;10.50;;;5.32;;
72517;SDS011;60540;51.178;6.738;2023-07-20T05:44:25;8.07;;;4.90;;
72517;SDS011;60540;51.178;6.738;2023-07-20T05:46:51;11.13;;;4.97;;
72517;SDS011;60540;51.178;6.738;2023-07-20T05:49:17;9.60;;;5.53;;
72517;SDS011;60540;51.178;6.738;2023-07-20T05:51:43;9.93;;;6.22;;
72517;SDS011;60540;51.178;6.738;2023-07-20T05:54:08;11.40;;;5.68;;
72517;SDS011;60540;51.178;6.738;2023-07-20T05:56:34;11.10;;;7.22;;
72517;SDS011;60540;51.178;6.738;2023-07-20T05:59:00;12.30;;;6.97;;
72517;SDS011;60540;51.178;6.738;2023-07-20T06:01:25;9.18;;;5.53;;
72517;SDS011;60540;51.178;6.738;2023-07-20T06:03:53;11.07;;;5.65;;
72517;SDS011;60540;51.178;6.738;2023-07-20T06:06:19;13.20;;;6.22;;
72517;SDS011;60540;51.178;6.738;2023-07-20T06:08:45;11.52;;;6.47;;
72517;SDS011;60540;51.178;6.738;2023-07-20T06:11:11;13.18;;;6.80;;
72517;SDS011;60540;51.178;6.738;2023-07-20T06:13:36;12.07;;;6.88;;
72517;SDS011;60540;51.178;6.738;2023-07-20T06:16:02;13.07;;;6.60;;
72517;SDS011;60540;51.178;6.738;2023-07-20T06:18:28;11.00;;;6.53;;
72517;SDS011;60540;51.178;6.738;2023-07-20T06:20:55;11.10;;;7.30;;
72517;SDS011;60540;51.178;6.738;2023-07-20T06:23:21;9.25;;;6.30;;
72517;SDS011;60540;51.178;6.738;2023-07-20T06:25:47;8.95;;;5.43;;
72517;SDS011;60540;51.178;6.738;2023-07-20T06:28:13;8.73;;;5.30;;
72517;SDS011;60540;51.178;6.738;2023-07-20T06:30:39;11.38;;;5.78;;
72517;SDS011;60540;51.178;6.738;2023-07-20T06:33:05;9.30;;;4.68;;
72517;SDS011;60540;51.178;6.738;2023-07-20T06:35:32;9.23;;;5.07;;
72517;SDS011;60540;51.178;6.738;2023-07-20T06:37:57;8.43;;;4.82;;
72517;SDS011;60540;51.178;6.738;2023-07-20T06:40:24;9.13;;;5.03;;
72517;SDS011;60540;51.178;6.738;2023-07-20T06:42:50;8.55;;;5.22;;
72517;SDS011;60540;51.178;6.738;2023-07-20T06:45:16;7.93;;;4.50;;
72517;SDS011;60540;51.178;6.738;2023-07-20T06:47:41;7.20;;;4.10;;
72517;SDS011;60540;51.178;6.738;2023-07-20T06:50:08;7.47;;;4.22;;
72517;SDS011;60540;51.178;6.738;2023-07-20T06:52:35;7.55;;;4.32;;
72517;SDS011;60540;51.178;6.738;2023-07-20T06:55:00;8.05;;;3.42;;
72517;SDS011;60540;51.178;6.738;2023-07-20T06:57:26;6.95;;;3.08;;
72517;SDS011;60540;51.178;6.738;2023-07-20T06:59:52;6.05;;;3.50;;
72517;SDS011;60540;51.178;6.738;2023-07-20T07:02:18;5.28;;;2.92;;
72517;SDS011;60540;51.178;6.738;2023-07-20T07:04:44;6.00;;;3.30;;
72517;SDS011;60540;51.178;6.738;2023-07-20T07:07:10;7.78;;;4.30;;
72517;SDS011;60540;51.178;6.738;2023-07-20T07:09:36;6.68;;;3.20;;
72517;SDS011;60540;51.178;6.738;2023-07-20T07:12:02;5.68;;;3.70;;
72517;SDS011;60540;51.178;6.738;2023-07-20T07:14:28;5.30;;;2.90;;
72517;SDS011;60540;51.178;6.738;2023-07-20T07:16:54;4.75;;;2.70;;
72517;SDS011;60540;51.178;6.738;2023-07-20T07:19:19;3.72;;;2.08;;
72517;SDS011;60540;51.178;6.738;2023-07-20T07:21:45;5.13;;;2.47;;
72517;SDS011;60540;51.178;6.738;2023-07-20T07:24:11;5.28;;;2.58;;
72517;SDS011;60540;51.178;6.738;2023-07-20T07:26:36;4.13;;;2.25;;
72517;SDS011;60540;51.178;6.738;2023-07-20T07:29:03;5.70;;;2.70;;
72517;SDS011;60540;51.178;6.738;2023-07-20T07:31:29;5.60;;;2.50;;
72517;SDS011;60540;51.178;6.738;2023-07-20T07:33:56;4.03;;;2.40;;
72517;SDS011;60540;51.178;6.738;2023-07-20T07:36:22;5.18;;;2.53;;
72517;SDS011;60540;51.178;6.738;2023-07-20T07:38:50;4.97;;;2.42;;
72517;SDS011;60540;51.178;6.738;2023-07-20T07:41:15;5.53;;;2.25;;
72517;SDS011;60540;51.178;6.738;2023-07-20T07:43:41;5.25;;;2.50;;
72517;SDS011;60540;51.178;6.738;2023-07-20T07:46:07;4.30;;;2.33;;
72517;SDS011;60540;51.178;6.738;2023-07-20T07:48:33;4.70;;;1.95;;
72517;SDS011;60540;51.178;6.738;2023-07-20T07:50:59;3.67;;;1.90;;
72517;SDS011;60540;51.178;6.738;2023-07-20T07:53:25;4.65;;;2.30;;
72517;SDS011;60540;51.178;6.738;2023-07-20T07:55:51;4.20;;;2.25;;
72517;SDS011;60540;51.178;6.738;2023-07-20T07:58:17;3.97;;;2.30;;
72517;SDS011;60540;51.178;6.738;2023-07-20T08:00:43;5.72;;;2.30;;
72517;SDS011;60540;51.178;6.738;2023-07-20T08:03:09;3.80;;;1.85;;
72517;SDS011;60540;51.178;6.738;2023-07-20T08:05:35;3.83;;;1.80;;
72517;SDS011;60540;51.178;6.738;2023-07-20T08:08:02;4.43;;;1.40;;
72517;SDS011;60540;51.178;6.738;2023-07-20T08:10:29;2.83;;;1.40;;
72517;SDS011;60540;51.178;6.738;2023-07-20T08:15:21;3.70;;;1.52;;
72517;SDS011;60540;51.178;6.738;2023-07-20T08:17:47;3.22;;;1.60;;
72517;SDS011;60540;51.178;6.738;2023-07-20T08:20:13;3.58;;;1.88;;
72517;SDS011;60540;51.178;6.738;2023-07-20T08:22:41;6.07;;;1.60;;
72517;SDS011;60540;51.178;6.738;2023-07-20T08:25:07;3.05;;;1.65;;
72517;SDS011;60540;51.178;6.738;2023-07-20T08:27:34;4.13;;;1.92;;
72517;SDS011;60540;51.178;6.738;2023-07-20T08:29:59;3.15;;;1.63;;
72517;SDS011;60540;51.178;6.738;2023-07-20T08:32:26;3.10;;;1.63;;
72517;SDS011;60540;51.178;6.738;2023-07-20T08:34:51;4.45;;;1.40;;
72517;SDS011;60540;51.178;6.738;2023-07-20T08:37:17;1.40;;;0.90;;
72517;SDS011;60540;51.178;6.738;2023-07-20T08:39:43;2.20;;;1.00;;
72517;SDS011;60540;51.178;6.738;2023-07-20T08:42:09;2.83;;;1.30;;
72517;SDS011;60540;51.178;6.738;2023-07-20T08:47:04;4.05;;;1.40;;
72517;SDS011;60540;51.178;6.738;2023-07-20T08:49:32;2.80;;;1.52;;
72517;SDS011;60540;51.178;6.738;2023-07-20T08:51:58;3.13;;;1.33;;
72517;SDS011;60540;51.178;6.738;2023-07-20T08:54:25;1.60;;;0.93;;
72517;SDS011;60540;51.178;6.738;2023-07-20T08:56:53;2.20;;;0.90;;
72517;SDS011;60540;51.178;6.738;2023-07-20T08:59:19;1.77;;;0.93;;
72517;SDS011;60540;51.178;6.738;2023-07-20T09:01:46;2.85;;;0.82;;
72517;SDS011;60540;51.178;6.738;2023-07-20T09:04:12;2.38;;;0.80;;
72517;SDS011;60540;51.178;6.738;2023-07-20T09:06:39;2.60;;;0.90;;
72517;SDS011;60540;51.178;6.738;2023-07-20T09:09:04;1.83;;;0.90;;
72517;SDS011;60540;51.178;6.738;2023-07-20T09:11:31;3.90;;;1.63;;
72517;SDS011;60540;51.178;6.738;2023-07-20T09:14:06;2.90;;;1.48;;
72517;SDS011;60540;51.178;6.738;2023-07-20T09:16:49;2.75;;;0.90;;
72517;SDS011;60540;51.178;6.738;2023-07-20T09:19:20;2.45;;;1.00;;
72517;SDS011;60540;51.178;6.738;2023-07-20T09:21:46;1.35;;;0.80;;
72517;SDS011;60540;51.178;6.738;2023-07-20T09:24:14;2.20;;;1.00;;
72517;SDS011;60540;51.178;6.738;2023-07-20T09:26:41;3.03;;;0.70;;
72517;SDS011;60540;51.178;6.738;2023-07-20T09:29:08;1.35;;;0.68;;
72517;SDS011;60540;51.178;6.738;2023-07-20T09:31:37;1.48;;;0.80;;
72517;SDS011;60540;51.178;6.738;2023-07-20T09:34:05;1.50;;;0.80;;
72517;SDS011;60540;51.178;6.738;2023-07-20T09:36:33;1.60;;;0.80;;
72517;SDS011;60540;51.178;6.738;2023-07-20T09:39:00;0.70;;;0.70;;
72517;SDS011;60540;51.178;6.738;2023-07-20T09:41:26;2.00;;;0.80;;
72517;SDS011;60540;51.178;6.738;2023-07-20T09:43:52;2.42;;;1.10;;
72517;SDS011;60540;51.178;6.738;2023-07-20T09:46:18;2.05;;;1.10;;
72517;SDS011;60540;51.178;6.738;2023-07-20T09:48:52;2.25;;;0.90;;
72517;SDS011;60540;51.178;6.738;2023-07-20T09:51:22;2.10;;;0.90;;
72517;SDS011;60540;51.178;6.738;2023-07-20T09:53:49;1.42;;;0.90;;
72517;SDS011;60540;51.178;6.738;2023-07-20T09:56:18;2.22;;;0.75;;
72517;SDS011;60540;51.178;6.738;2023-07-20T09:58:46;2.60;;;0.82;;
72517;SDS011;60540;51.178;6.738;2023-07-20T10:01:13;2.63;;;0.60;;
72517;SDS011;60540;51.178;6.738;2023-07-20T10:03:42;2.00;;;0.60;;
72517;SDS011;60540;51.178;6.738;2023-07-20T10:06:10;2.17;;;0.80;;
72517;SDS011;60540;51.178;6.738;2023-07-20T10:08:39;1.60;;;0.70;;
72517;SDS011;60540;51.178;6.738;2023-07-20T10:11:07;1.42;;;0.70;;
72517;SDS011;60540;51.178;6.738;2023-07-20T10:13:36;2.40;;;0.77;;
72517;SDS011;60540;51.178;6.738;2023-07-20T10:16:06;1.60;;;0.60;;
72517;SDS011;60540;51.178;6.738;2023-07-20T10:18:41;1.23;;;0.60;;
72517;SDS011;60540;51.178;6.738;2023-07-20T10:21:27;1.77;;;0.70;;
72517;SDS011;60540;51.178;6.738;2023-07-20T10:23:55;1.25;;;0.70;;
72517;SDS011;60540;51.178;6.738;2023-07-20T10:26:21;1.58;;;0.70;;
72517;SDS011;60540;51.178;6.738;2023-07-20T10:28:47;0.68;;;0.50;;
72517;SDS011;60540;51.178;6.738;2023-07-20T10:31:13;2.95;;;0.70;;
72517;SDS011;60540;51.178;6.738;2023-07-20T10:33:39;0.90;;;0.50;;
72517;SDS011;60540;51.178;6.738;2023-07-20T10:36:05;1.25;;;0.68;;
72517;SDS011;60540;51.178;6.738;2023-07-20T10:38:38;1.17;;;0.80;;
72517;SDS011;60540;51.178;6.738;2023-07-20T10:41:20;1.08;;;0.70;;
72517;SDS011;60540;51.178;6.738;2023-07-20T10:43:47;1.02;;;0.80;;
72517;SDS011;60540;51.178;6.738;2023-07-20T10:46:14;2.20;;;0.80;;
72517;SDS011;60540;51.178;6.738;2023-07-20T10:48:58;2.38;;;1.20;;
72517;SDS011;60540;51.178;6.738;2023-07-20T10:51:26;1.65;;;0.75;;
72517;SDS011;60540;51.178;6.738;2023-07-20T10:53:52;1.30;;;0.60;;
72517;SDS011;60540;51.178;6.738;2023-07-20T10:56:20;2.15;;;0.82;;
72517;SDS011;60540;51.178;6.738;2023-07-20T10:58:47;1.23;;;0.60;;
72517;SDS011;60540;51.178;6.738;2023-07-20T11:01:13;2.33;;;0.80;;
72517;SDS011;60540;51.178;6.738;2023-07-20T11:03:41;2.22;;;0.90;;
72517;SDS011;60540;51.178;6.738;2023-07-20T11:06:29;2.95;;;0.98;;
72517;SDS011;60540;51.178;6.738;2023-07-20T11:09:04;1.33;;;0.90;;
72517;SDS011;60540;51.178;6.738;2023-07-20T11:11:34;2.58;;;0.75;;
72517;SDS011;60540;51.178;6.738;2023-07-20T11:14:06;1.90;;;0.60;;
72517;SDS011;60540;51.178;6.738;2023-07-20T11:16:43;1.63;;;0.70;;
72517;SDS011;60540;51.178;6.738;2023-07-20T11:19:20;1.20;;;0.80;;
72517;SDS011;60540;51.178;6.738;2023-07-20T11:21:50;1.67;;;0.85;;
72517;SDS011;60540;51.178;6.738;2023-07-20T11:24:20;1.17;;;0.77;;
72517;SDS011;60540;51.178;6.738;2023-07-20T11:26:47;1.35;;;0.80;;
72517;SDS011;60540;51.178;6.738;2023-07-20T11:29:13;3.47;;;0.90;;
72517;SDS011;60540;51.178;6.738;2023-07-20T11:31:39;2.92;;;0.85;;
72517;SDS011;60540;51.178;6.738;2023-07-20T11:34:06;1.60;;;0.80;;
72517;SDS011;60540;51.178;6.738;2023-07-20T11:36:35;1.88;;;0.90;;
72517;SDS011;60540;51.178;6.738;2023-07-20T11:39:01;2.00;;;1.00;;
72517;SDS011;60540;51.178;6.738;2023-07-20T11:41:30;2.70;;;0.90;;
72517;SDS011;60540;51.178;6.738;2023-07-20T11:43:57;1.33;;;0.77;;
72517;SDS011;60540;51.178;6.738;2023-07-20T11:46:23;1.25;;;0.70;;
72517;SDS011;60540;51.178;6.738;2023-07-20T11:48:48;1.30;;;0.63;;
72517;SDS011;60540;51.178;6.738;2023-07-20T11:51:15;2.17;;;0.70;;
72517;SDS011;60540;51.178;6.738;2023-07-20T11:53:42;1.92;;;0.75;;
72517;SDS011;60540;51.178;6.738;2023-07-20T11:56:08;0.73;;;0.55;;
72517;SDS011;60540;51.178;6.738;2023-07-20T11:58:35;1.73;;;0.70;;
72517;SDS011;60540;51.178;6.738;2023-07-20T12:01:01;1.30;;;0.70;;
72517;SDS011;60540;51.178;6.738;2023-07-20T12:03:27;2.58;;;0.88;;
72517;SDS011;60540;51.178;6.738;2023-07-20T12:05:52;6.10;;;1.40;;
72517;SDS011;60540;51.178;6.738;2023-07-20T12:08:18;11.25;;;2.40;;
72517;SDS011;60540;51.178;6.738;2023-07-20T12:10:44;2.00;;;0.80;;
72517;SDS011;60540;51.178;6.738;2023-07-20T12:13:10;1.17;;;0.75;;
72517;SDS011;60540;51.178;6.738;2023-07-20T12:15:37;2.00;;;0.80;;
72517;SDS011;60540;51.178;6.738;2023-07-20T12:18:02;8.43;;;1.35;;
72517;SDS011;60540;51.178;6.738;2023-07-20T12:20:30;13.05;;;1.85;;
72517;SDS011;60540;51.178;6.738;2023-07-20T12:23:02;38.03;;;3.60;;
72517;SDS011;60540;51.178;6.738;2023-07-20T12:25:44;4.88;;;1.02;;
72517;SDS011;60540;51.178;6.738;2023-07-20T12:28:11;1.98;;;0.70;;
72517;SDS011;60540;51.178;6.738;2023-07-20T12:30:42;0.88;;;0.63;;
72517;SDS011;60540;51.178;6.738;2023-07-20T12:33:09;3.75;;;0.88;;
72517;SDS011;60540;51.178;6.738;2023-07-20T12:35:35;1.33;;;0.65;;
72517;SDS011;60540;51.178;6.738;2023-07-20T12:38:01;2.15;;;0.80;;
72517;SDS011;60540;51.178;6.738;2023-07-20T12:40:27;1.52;;;0.80;;
72517;SDS011;60540;51.178;6.738;2023-07-20T12:42:52;1.15;;;0.60;;
72517;SDS011;60540;51.178;6.738;2023-07-20T12:45:18;1.45;;;0.60;;
72517;SDS011;60540;51.178;6.738;2023-07-20T12:47:44;2.22;;;0.80;;
72517;SDS011;60540;51.178;6.738;2023-07-20T12:50:10;1.38;;;0.55;;
72517;SDS011;60540;51.178;6.738;2023-07-20T12:52:36;1.98;;;0.75;;
72517;SDS011;60540;51.178;6.738;2023-07-20T12:55:04;2.10;;;0.70;;
72517;SDS011;60540;51.178;6.738;2023-07-20T12:57:30;1.55;;;0.75;;
72517;SDS011;60540;51.178;6.738;2023-07-20T12:59:56;1.35;;;0.80;;
72517;SDS011;60540;51.178;6.738;2023-07-20T13:02:22;1.38;;;0.70;;
72517;SDS011;60540;51.178;6.738;2023-07-20T13:04:48;1.52;;;0.70;;
72517;SDS011;60540;51.178;6.738;2023-07-20T13:07:13;1.33;;;0.68;;
72517;SDS011;60540;51.178;6.738;2023-07-20T13:09:39;2.28;;;0.70;;
72517;SDS011;60540;51.178;6.738;2023-07-20T13:12:05;1.50;;;0.80;;
72517;SDS011;60540;51.178;6.738;2023-07-20T13:14:31;1.38;;;0.70;;
72517;SDS011;60540;51.178;6.738;2023-07-20T13:16:57;2.92;;;1.33;;
72517;SDS011;60540;51.178;6.738;2023-07-20T13:19:23;2.08;;;1.08;;
72517;SDS011;60540;51.178;6.738;2023-07-20T13:21:48;1.90;;;0.73;;
72517;SDS011;60540;51.178;6.738;2023-07-20T13:24:14;1.88;;;0.82;;
72517;SDS011;60540;51.178;6.738;2023-07-20T13:26:40;1.50;;;0.70;;
72517;SDS011;60540;51.178;6.738;2023-07-20T13:29:06;1.75;;;0.80;;
72517;SDS011;60540;51.178;6.738;2023-07-20T13:31:32;1.83;;;0.80;;
72517;SDS011;60540;51.178;6.738;2023-07-20T13:33:58;1.67;;;0.68;;
72517;SDS011;60540;51.178;6.738;2023-07-20T13:36:23;1.00;;;0.60;;
72517;SDS011;60540;51.178;6.738;2023-07-20T13:38:49;1.80;;;0.88;;
72517;SDS011;60540;51.178;6.738;2023-07-20T13:41:15;2.53;;;1.00;;
72517;SDS011;60540;51.178;6.738;2023-07-20T13:43:42;4.13;;;1.00;;
72517;SDS011;60540;51.178;6.738;2023-07-20T13:46:07;2.08;;;0.65;;
72517;SDS011;60540;51.178;6.738;2023-07-20T13:48:33;2.00;;;0.90;;
72517;SDS011;60540;51.178;6.738;2023-07-20T13:50:59;2.78;;;0.73;;
72517;SDS011;60540;51.178;6.738;2023-07-20T13:53:25;1.83;;;0.82;;
72517;SDS011;60540;51.178;6.738;2023-07-20T13:55:50;1.15;;;0.77;;
72517;SDS011;60540;51.178;6.738;2023-07-20T13:58:18;2.67;;;0.85;;
72517;SDS011;60540;51.178;6.738;2023-07-20T14:00:43;3.05;;;0.73;;
72517;SDS011;60540;51.178;6.738;2023-07-20T14:03:09;1.13;;;0.70;;
72517;SDS011;60540;51.178;6.738;2023-07-20T14:05:35;1.98;;;0.82;;
72517;SDS011;60540;51.178;6.738;2023-07-20T14:08:01;2.25;;;1.08;;
72517;SDS011;60540;51.178;6.738;2023-07-20T14:10:26;1.48;;;0.85;;
72517;SDS011;60540;51.178;6.738;2023-07-20T14:12:52;0.90;;;0.60;;
72517;SDS011;60540;51.178;6.738;2023-07-20T14:15:18;1.20;;;0.70;;
72517;SDS011;60540;51.178;6.738;2023-07-20T14:17:44;1.08;;;0.70;;
72517;SDS011;60540;51.178;6.738;2023-07-20T14:20:10;1.55;;;0.70;;
72517;SDS011;60540;51.178;6.738;2023-07-20T14:22:36;2.20;;;0.93;;
72517;SDS011;60540;51.178;6.738;2023-07-20T14:25:02;3.30;;;0.70;;
72517;SDS011;60540;51.178;6.738;2023-07-20T14:27:28;1.13;;;0.80;;
72517;SDS011;60540;51.178;6.738;2023-07-20T14:29:54;1.88;;;0.85;;
72517;SDS011;60540;51.178;6.738;2023-07-20T14:32:20;2.13;;;0.65;;
72517;SDS011;60540;51.178;6.738;2023-07-20T14:34:46;1.75;;;0.82;;
72517;SDS011;60540;51.178;6.738;2023-07-20T14:37:11;2.55;;;0.77;;
72517;SDS011;60540;51.178;6.738;2023-07-20T14:42:04;2.25;;;0.90;;
72517;SDS011;60540;51.178;6.738;2023-07-20T14:44:30;1.13;;;0.70;;
72517;SDS011;60540;51.178;6.738;2023-07-20T14:46:56;1.25;;;0.73;;
72517;SDS011;60540;51.178;6.738;2023-07-20T14:49:21;2.22;;;0.80;;
72517;SDS011;60540;51.178;6.738;2023-07-20T14:51:47;1.70;;;0.75;;
72517;SDS011;60540;51.178;6.738;2023-07-20T14:54:13;2.25;;;1.00;;
72517;SDS011;60540;51.178;6.738;2023-07-20T14:56:39;2.08;;;0.95;;
72517;SDS011;60540;51.178;6.738;2023-07-20T14:59:05;2.75;;;1.02;;
72517;SDS011;60540;51.178;6.738;2023-07-20T15:03:57;3.13;;;1.02;;
72517;SDS011;60540;51.178;6.738;2023-07-20T15:06:25;1.67;;;0.90;;